TAF KEET
KEET 090520Z 0906/1006 00000KT P6SM FEW250 FM092200 15005KT P6SM OVC030 FM100300 15005KT P6SM OVC008 FM100500 16005KT 6SM BR OVC005=
METAR KEET
WC KEET
WS KEET
WV KEET